Time;durP1;ratioP1;P1;durP2;ratioP2;P2;SDS_P1;SDS_P2;PMS_P1;PMS_P2;Temp;Humidity;BMP_temperature;BMP_pressure;BME280_temperature;BME280_humidity;BME280_pressure;Samples;Min_cycle;Max_cycle;Signal;HPM_P1;HPM_P2
2024/03/09 00:04:51;;;;;;;20.67;11.60;;;2.70;99.90;;;;;;12440047;28;20046;-34
2024/03/09 00:10:53;;;;;;;21.13;11.90;;;2.50;99.90;;;;;;12437209;28;20095;-35
2024/03/09 00:16:55;;;;;;;20.42;11.55;;;2.50;99.90;;;;;;12435972;28;20115;-34
2024/03/09 00:22:57;;;;;;;24.95;12.43;;;2.70;99.90;;;;;;12435594;28;20053;-35
2024/03/09 00:28:59;;;;;;;22.83;12.10;;;3.10;99.90;;;;;;12435685;28;20056;-35
2024/03/09 00:35:02;;;;;;;20.42;12.25;;;3.40;99.90;;;;;;12433642;28;20103;-35
2024/03/09 00:41:04;;;;;;;23.30;12.50;;;3.40;99.90;;;;;;12435694;28;20553;-35
2024/03/09 00:47:06;;;;;;;20.67;11.00;;;3.10;99.90;;;;;;12436081;28;20054;-35
2024/03/09 00:53:08;;;;;;;20.33;11.75;;;3.00;99.90;;;;;;12436358;28;20038;-35
2024/03/09 00:59:13;;;;;;;21.63;11.18;;;2.80;99.90;;;;;;12429630;28;20045;-35
2024/03/09 01:05:19;;;;;;;;;;;2.60;99.90;;;;;;12438085;28;20056;-35
2024/03/09 01:11:22;;;;;;;21.90;11.30;;;2.50;99.90;;;;;;12428145;28;19925;-35
2024/03/09 01:17:24;;;;;;;25.93;11.67;;;2.30;99.90;;;;;;12423184;28;20042;-35
2024/03/09 01:23:26;;;;;;;22.08;11.70;;;2.20;99.90;;;;;;12429607;28;20050;-35
2024/03/09 01:29:28;;;;;;;21.50;11.45;;;2.20;99.90;;;;;;12436119;28;20046;-35
2024/03/09 01:35:30;;;;;;;23.40;12.10;;;2.40;99.90;;;;;;12431736;28;20088;-35
2024/03/09 01:41:32;;;;;;;25.15;12.57;;;2.20;99.90;;;;;;12420024;28;20088;-35
2024/03/09 01:47:35;;;;;;;23.52;11.82;;;2.30;99.90;;;;;;12444478;28;20521;-35
2024/03/09 01:53:41;;;;;;;26.27;13.30;;;2.40;99.90;;;;;;12417319;28;20065;-35
2024/03/09 01:59:48;;;;;;;21.65;12.45;;;2.30;99.90;;;;;;12448166;28;20077;-35
2024/03/09 02:05:54;;;;;;;24.52;12.50;;;2.30;99.90;;;;;;12441782;28;20054;-35
2024/03/09 02:12:00;;;;;;;25.42;13.25;;;2.40;99.90;;;;;;12443503;28;20057;-35
2024/03/09 02:18:02;;;;;;;22.25;12.55;;;2.40;99.90;;;;;;12443296;28;20053;-35
2024/03/09 02:24:11;;;;;;;22.38;11.80;;;2.50;99.90;;;;;;12441000;28;20045;-35
2024/03/09 02:30:13;;;;;;;23.88;13.38;;;2.40;99.90;;;;;;12436857;28;20602;-35
2024/03/09 02:36:15;;;;;;;24.13;12.95;;;2.30;99.90;;;;;;12442538;28;20046;-35
2024/03/09 02:42:17;;;;;;;25.02;13.75;;;2.30;99.90;;;;;;12443250;28;20517;-35
2024/03/09 02:48:18;;;;;;;21.85;13.07;;;2.70;99.90;;;;;;12441309;28;20633;-35
2024/03/09 02:54:20;;;;;;;24.20;12.80;;;2.60;99.90;;;;;;12439466;28;20142;-35
2024/03/09 03:00:26;;;;;;;23.30;12.13;;;2.50;99.90;;;;;;12437228;28;20128;-35
2024/03/09 03:06:29;;;;;;;25.65;13.63;;;2.30;99.90;;;;;;12420296;28;20061;-35
2024/03/09 03:12:30;;;;;;;25.88;12.98;;;2.30;99.90;;;;;;12441139;28;20200;-35
2024/03/09 03:18:33;;;;;;;26.80;13.85;;;2.20;99.90;;;;;;12438324;28;20073;-35
2024/03/09 03:24:34;;;;;;;22.35;12.95;;;2.20;99.90;;;;;;12441091;28;20065;-35
2024/03/09 03:30:39;;;;;;;25.02;12.65;;;2.20;99.90;;;;;;12428179;28;20049;-35
2024/03/09 03:36:42;;;;;;;26.35;13.48;;;2.30;99.90;;;;;;12435889;28;20195;-35
2024/03/09 03:42:44;;;;;;;21.67;12.35;;;2.20;99.90;;;;;;12429956;28;20141;-35
2024/03/09 03:48:46;;;;;;;22.48;12.45;;;2.30;99.90;;;;;;12440529;28;20415;-35
2024/03/09 03:54:49;;;;;;;27.85;14.50;;;2.30;99.90;;;;;;12436815;28;20050;-35
2024/03/09 04:00:51;;;;;;;24.38;12.68;;;2.40;99.90;;;;;;12438927;28;20168;-35
2024/03/09 04:06:53;;;;;;;27.17;14.45;;;2.50;99.90;;;;;;12439934;28;20050;-35
2024/03/09 04:12:56;;;;;;;25.40;13.55;;;2.50;99.90;;;;;;12433018;28;20065;-35
2024/03/09 04:18:58;;;;;;;30.48;14.32;;;2.40;99.90;;;;;;12435703;28;20050;-35
2024/03/09 04:25:03;;;;;;;23.80;13.15;;;2.40;99.90;;;;;;12437250;28;20069;-35
2024/03/09 04:31:06;;;;;;;25.27;12.98;;;2.40;99.90;;;;;;12415947;28;20060;-35
2024/03/09 04:37:08;;;;;;;25.23;13.38;;;2.30;99.90;;;;;;12435003;28;20140;-35
2024/03/09 04:43:12;;;;;;;28.55;14.25;;;2.40;99.90;;;;;;12437409;28;20061;-35
2024/03/09 04:49:14;;;;;;;28.60;15.65;;;2.40;99.90;;;;;;12437625;28;20498;-35
2024/03/09 04:55:17;;;;;;;27.02;14.48;;;2.40;99.90;;;;;;12434626;28;20046;-35
2024/03/09 05:01:19;;;;;;;26.42;13.77;;;2.50;99.90;;;;;;12434653;28;20045;-35
2024/03/09 05:07:23;;;;;;;23.90;13.63;;;2.50;99.90;;;;;;12436137;28;20054;-35
2024/03/09 05:13:25;;;;;;;24.80;13.30;;;2.50;99.90;;;;;;12416343;28;20088;-35
2024/03/09 05:19:27;;;;;;;24.30;13.48;;;2.50;99.90;;;;;;12432115;28;20322;-34
2024/03/09 05:25:30;;;;;;;26.60;13.70;;;2.40;99.90;;;;;;12431636;28;20062;-35
2024/03/09 05:31:32;;;;;;;25.23;13.32;;;2.20;99.90;;;;;;12429785;28;20403;-35
2024/03/09 05:37:34;;;;;;;27.83;14.77;;;2.00;99.90;;;;;;12433203;28;20054;-34
2024/03/09 05:43:36;;;;;;;22.88;12.38;;;1.90;99.90;;;;;;12435965;28;20081;-35
2024/03/09 05:49:38;;;;;;;27.05;13.85;;;1.90;99.90;;;;;;12431690;28;20046;-35
2024/03/09 05:55:43;;;;;;;28.23;13.55;;;1.90;99.90;;;;;;12430349;28;20084;-35
2024/03/09 06:01:45;;;;;;;27.45;13.60;;;2.00;99.90;;;;;;12435230;28;20494;-35
2024/03/09 06:07:47;;;;;;;28.23;13.65;;;2.20;99.90;;;;;;12430848;28;20060;-35
2024/03/09 06:13:49;;;;;;;26.35;13.35;;;2.40;99.90;;;;;;12432697;28;20046;-35
2024/03/09 06:19:51;;;;;;;25.02;13.07;;;2.50;99.90;;;;;;12430535;28;20054;-34
2024/03/09 06:25:56;;;;;;;25.70;12.77;;;2.50;99.90;;;;;;12423357;28;20050;-35
2024/03/09 06:31:57;;;;;;;24.55;12.55;;;2.50;99.90;;;;;;12442522;28;20539;-35
2024/03/09 06:38:05;;;;;;;25.02;11.93;;;2.60;99.90;;;;;;12438906;28;20061;-35
2024/03/09 06:44:14;;;;;;;27.88;13.57;;;2.70;99.90;;;;;;12442209;28;20054;-35
2024/03/09 06:50:17;;;;;;;21.77;12.75;;;2.80;99.90;;;;;;12441698;28;20056;-34
2024/03/09 06:56:19;;;;;;;24.65;12.90;;;2.90;99.90;;;;;;12439070;28;20391;-35
2024/03/09 07:02:21;;;;;;;26.42;13.23;;;3.00;99.90;;;;;;12439714;28;20049;-35
2024/03/09 07:08:25;;;;;;;24.83;12.50;;;3.10;99.90;;;;;;12440320;28;20123;-35
2024/03/09 07:14:27;;;;;;;19.42;11.30;;;3.20;99.90;;;;;;12439257;28;20074;-35
2024/03/09 07:20:32;;;;;;;21.80;12.05;;;3.40;99.90;;;;;;12432266;28;20056;-35
2024/03/09 07:26:39;;;;;;;20.95;12.45;;;3.50;99.90;;;;;;12436496;28;20089;-35
2024/03/09 07:32:48;;;;;;;20.75;12.05;;;3.60;99.90;;;;;;12434833;28;20053;-35
2024/03/09 07:38:50;;;;;;;23.55;11.63;;;3.80;99.90;;;;;;12427418;28;20058;-35
2024/03/09 07:44:52;;;;;;;21.70;12.52;;;4.00;99.90;;;;;;12440452;28;20160;-35
2024/03/09 07:50:54;;;;;;;23.95;12.18;;;4.20;99.90;;;;;;12441705;28;20057;-35
2024/03/09 07:56:56;;;;;;;22.98;13.35;;;4.30;99.90;;;;;;12435743;28;20128;-35
2024/03/09 08:02:59;;;;;;;23.02;12.60;;;4.50;99.90;;;;;;12435499;28;20092;-35
2024/03/09 08:09:02;;;;;;;19.33;11.63;;;4.80;99.90;;;;;;12433516;28;20451;-35
2024/03/09 08:15:04;;;;;;;19.90;12.30;;;5.00;99.90;;;;;;12439994;28;20168;-35
2024/03/09 08:21:07;;;;;;;24.00;12.15;;;5.30;99.90;;;;;;12440793;28;20049;-35
2024/03/09 08:27:09;;;;;;;16.85;11.15;;;5.40;99.90;;;;;;12435847;28;20046;-35
2024/03/09 08:33:11;;;;;;;20.17;11.30;;;5.60;99.90;;;;;;12437465;28;20049;-35
2024/03/09 08:39:13;;;;;;;21.58;11.52;;;5.90;99.90;;;;;;12420004;28;20100;-35
2024/03/09 08:45:15;;;;;;;17.50;10.35;;;6.20;99.90;;;;;;12436578;28;20053;-35
2024/03/09 08:51:20;;;;;;;19.42;12.48;;;6.40;99.90;;;;;;12416417;28;20133;-35
2024/03/09 08:57:23;;;;;;;20.20;11.38;;;6.70;99.90;;;;;;12436920;28;20474;-35
2024/03/09 09:03:25;;;;;;;18.38;11.18;;;6.60;99.90;;;;;;12447880;28;20060;-36
2024/03/09 09:09:26;;;;;;;17.95;11.45;;;6.80;99.90;;;;;;12436983;28;20100;-36
2024/03/09 09:15:29;;;;;;;19.08;11.73;;;6.70;99.90;;;;;;12428473;28;20108;-36
2024/03/09 09:21:34;;;;;;;20.20;12.50;;;6.90;99.90;;;;;;12435406;28;20058;-36
2024/03/09 09:27:38;;;;;;;14.90;10.77;;;7.00;99.90;;;;;;12432183;28;20053;-35
2024/03/09 09:33:39;;;;;;;16.87;11.00;;;7.30;99.90;;;;;;12433811;28;20388;-35
2024/03/09 09:39:43;;;;;;;16.80;11.02;;;7.50;99.90;;;;;;12433027;28;20042;-36
2024/03/09 09:45:45;;;;;;;16.90;10.90;;;7.20;99.90;;;;;;12414028;28;20523;-35
2024/03/09 09:51:51;;;;;;;18.20;10.63;;;7.20;99.90;;;;;;12428437;28;20061;-35
2024/03/09 09:57:53;;;;;;;18.15;10.80;;;7.30;99.90;;;;;;12428396;28;20176;-35
2024/03/09 10:03:55;;;;;;;16.50;10.00;;;7.80;99.90;;;;;;12439999;28;20058;-36
2024/03/09 10:10:12;;;;;;;18.25;10.57;;;7.60;99.90;;;;;;12437970;28;20491;-36
2024/03/09 10:16:26;;;;;;;15.35;9.65;;;7.80;99.90;;;;;;12442624;28;20137;-36
2024/03/09 10:22:28;;;;;;;15.83;9.13;;;8.20;99.90;;;;;;12428663;28;20480;-36
2024/03/09 10:28:31;;;;;;;15.40;9.15;;;8.10;99.90;;;;;;12438144;28;20773;-35
2024/03/09 10:34:33;;;;;;;17.60;10.13;;;8.10;99.90;;;;;;12435111;28;20084;-35
2024/03/09 10:40:35;;;;;;;14.85;9.52;;;8.30;99.90;;;;;;12444563;28;20487;-35
2024/03/09 10:46:42;;;;;;;14.85;9.35;;;8.60;99.90;;;;;;12441509;28;20054;-35
2024/03/09 10:52:52;;;;;;;16.52;9.43;;;8.70;99.90;;;;;;12441748;28;20053;-36
2024/03/09 10:58:55;;;;;;;17.95;9.45;;;8.70;99.90;;;;;;12437708;28;20099;-36
2024/03/09 11:04:58;;;;;;;16.20;9.05;;;8.40;99.90;;;;;;12438627;28;20046;-36
2024/03/09 11:11:02;;;;;;;13.20;9.03;;;8.30;99.90;;;;;;12438707;28;20743;-36
2024/03/09 11:17:05;;;;;;;16.00;9.45;;;8.60;99.90;;;;;;12434896;28;20046;-36
2024/03/09 11:23:07;;;;;;;15.82;9.98;;;8.30;99.90;;;;;;12437618;28;20529;-36
2024/03/09 11:29:12;;;;;;;15.75;9.70;;;8.50;99.90;;;;;;12436093;28;20049;-35
2024/03/09 11:35:32;;;;;;;16.98;9.98;;;8.50;99.90;;;;;;12436559;28;20068;-36
2024/03/09 11:41:38;;;;;;;15.10;8.98;;;8.60;99.90;;;;;;12418064;28;20152;-36
2024/03/09 11:47:40;;;;;;;14.80;9.38;;;8.50;99.90;;;;;;12436461;28;20184;-36
2024/03/09 11:53:43;;;;;;;15.63;9.40;;;8.80;99.90;;;;;;12428688;28;20082;-36
2024/03/09 11:59:45;;;;;;;15.63;9.15;;;9.10;99.90;;;;;;12426579;28;20096;-36
2024/03/09 12:05:47;;;;;;;16.10;9.15;;;9.50;99.90;;;;;;12417650;28;20151;-35
2024/03/09 12:11:49;;;;;;;12.52;8.18;;;9.60;99.90;;;;;;12436265;28;20566;-36
2024/03/09 12:17:52;;;;;;;13.30;7.95;;;9.70;99.90;;;;;;12436154;28;20490;-36
2024/03/09 12:24:01;;;;;;;15.30;8.63;;;9.70;99.90;;;;;;12436561;28;20427;-36
2024/03/09 12:30:09;;;;;;;14.02;7.97;;;9.60;99.90;;;;;;12435862;28;20095;-36
2024/03/09 12:36:11;;;;;;;11.93;7.57;;;9.40;99.90;;;;;;12433120;28;20077;-35
2024/03/09 12:42:15;;;;;;;14.57;7.55;;;9.40;99.90;;;;;;12433954;28;20144;-35
2024/03/09 12:48:16;;;;;;;12.37;6.57;;;9.40;99.90;;;;;;12424074;28;20050;-35
2024/03/09 12:54:19;;;;;;;14.05;7.30;;;9.20;99.90;;;;;;12433327;28;20419;-36
2024/03/09 13:00:23;;;;;;;12.65;6.95;;;9.20;99.90;;;;;;12431724;28;20055;-36
2024/03/09 13:06:25;;;;;;;12.67;7.80;;;9.50;99.90;;;;;;12438394;28;20121;-36
2024/03/09 13:12:27;;;;;;;12.15;6.88;;;9.90;99.90;;;;;;12430809;28;20072;-36
2024/03/09 13:18:31;;;;;;;11.00;6.75;;;10.20;99.90;;;;;;12432992;28;20136;-36
2024/03/09 13:24:34;;;;;;;10.50;6.13;;;10.20;99.90;;;;;;12427396;28;20049;-36
2024/03/09 13:30:39;;;;;;;10.73;6.03;;;10.30;99.90;;;;;;12428604;28;20061;-36
2024/03/09 13:36:41;;;;;;;9.55;5.40;;;10.30;99.90;;;;;;12431600;28;20466;-36
2024/03/09 13:42:43;;;;;;;9.95;5.85;;;10.50;99.90;;;;;;12428895;28;20048;-36
2024/03/09 13:48:48;;;;;;;9.88;5.50;;;10.50;99.90;;;;;;12431167;28;20046;-35
2024/03/09 13:54:51;;;;;;;11.35;5.78;;;10.50;99.90;;;;;;12426777;28;20414;-35
2024/03/09 14:00:53;;;;;;;12.27;5.15;;;10.60;99.90;;;;;;12435638;28;20046;-36
2024/03/09 14:06:55;;;;;;;9.57;5.35;;;10.30;99.90;;;;;;12423911;28;20132;-36
2024/03/09 14:13:10;;;;;;;8.65;5.40;;;10.10;99.90;;;;;;12429795;28;20637;-35
2024/03/09 14:19:13;;;;;;;9.48;5.68;;;10.20;99.90;;;;;;12425354;28;20053;-35
2024/03/09 14:25:15;;;;;;;10.52;5.25;;;10.30;99.90;;;;;;12429328;28;20072;-36
2024/03/09 14:31:17;;;;;;;9.85;5.53;;;10.30;99.90;;;;;;12434729;28;20080;-36
2024/03/09 14:37:18;;;;;;;9.30;5.57;;;10.20;99.90;;;;;;12432211;28;20182;-36
2024/03/09 14:43:23;;;;;;;10.07;5.07;;;10.10;99.90;;;;;;12433095;28;20077;-36
2024/03/09 14:49:26;;;;;;;10.15;5.80;;;10.00;99.90;;;;;;12441944;28;20498;-36
2024/03/09 14:55:28;;;;;;;8.30;5.05;;;10.10;99.90;;;;;;12423534;28;20069;-36
2024/03/09 15:01:30;;;;;;;8.07;5.00;;;10.00;99.90;;;;;;12443911;28;20053;-36
2024/03/09 15:07:32;;;;;;;9.20;5.30;;;10.00;99.90;;;;;;12434820;28;20042;-36
2024/03/09 15:13:40;;;;;;;9.50;5.13;;;10.00;99.90;;;;;;12433285;28;20050;-35
2024/03/09 15:19:42;;;;;;;9.30;5.10;;;10.00;99.90;;;;;;12442649;28;20557;-36
2024/03/09 15:25:45;;;;;;;8.40;4.93;;;10.00;99.90;;;;;;12443672;28;20491;-36
2024/03/09 15:31:48;;;;;;;9.23;5.18;;;10.10;99.90;;;;;;12442032;28;20603;-36
2024/03/09 15:37:53;;;;;;;10.60;5.75;;;10.00;99.90;;;;;;12439690;28;20065;-35
2024/03/09 15:43:55;;;;;;;13.53;6.77;;;10.00;99.90;;;;;;12442109;28;20053;-36
2024/03/09 15:49:59;;;;;;;15.40;8.65;;;9.90;99.90;;;;;;12433133;28;20050;-35
2024/03/09 15:56:02;;;;;;;15.68;9.95;;;9.80;99.90;;;;;;12434916;28;20200;-35
2024/03/09 16:02:06;;;;;;;18.92;10.45;;;9.70;99.90;;;;;;12439672;28;20053;-35
2024/03/09 16:08:08;;;;;;;20.17;11.55;;;9.50;99.90;;;;;;12435298;28;20485;-36
2024/03/09 16:14:15;;;;;;;20.17;11.55;;;9.50;99.90;;;;;;12428752;28;20088;-36
2024/03/09 16:20:28;;;;;;;21.30;12.02;;;9.30;99.90;;;;;;12439646;28;20096;-36
2024/03/09 16:26:30;;;;;;;19.50;11.75;;;9.10;99.90;;;;;;12435266;28;20606;-36
2024/03/09 16:32:44;;;;;;;19.35;12.27;;;9.00;99.90;;;;;;12431898;28;20057;-35
2024/03/09 16:38:46;;;;;;;18.58;11.75;;;8.80;99.90;;;;;;12438093;28;20475;-36
2024/03/09 16:44:48;;;;;;;19.85;12.00;;;8.70;99.90;;;;;;12434986;28;20054;-35
2024/03/09 16:50:51;;;;;;;17.80;11.63;;;8.70;99.90;;;;;;12435590;28;20418;-36
2024/03/09 16:56:55;;;;;;;22.48;13.57;;;8.50;99.90;;;;;;12433019;28;20042;-35
2024/03/09 17:02:57;;;;;;;;;;;8.30;99.90;;;;;;12437752;28;20042;-36
2024/03/09 17:08:59;;;;;;;19.38;12.73;;;8.20;99.90;;;;;;12418153;28;19929;-35
2024/03/09 17:15:01;;;;;;;23.67;13.50;;;8.10;99.90;;;;;;12433892;28;20054;-36
2024/03/09 17:21:03;;;;;;;22.02;13.13;;;8.00;99.90;;;;;;12433874;28;20069;-35
2024/03/09 17:27:05;;;;;;;21.88;13.77;;;7.80;99.90;;;;;;12435548;28;20088;-35
2024/03/09 17:33:07;;;;;;;21.83;12.90;;;7.70;99.90;;;;;;12431708;28;20140;-35
2024/03/09 17:39:12;;;;;;;19.05;12.52;;;7.70;99.90;;;;;;12433955;28;20050;-35
2024/03/09 17:45:14;;;;;;;20.33;12.13;;;7.50;99.90;;;;;;12431749;28;20080;-35
2024/03/09 17:51:21;;;;;;;19.17;12.30;;;7.50;99.90;;;;;;12417592;28;20400;-35
2024/03/09 17:57:28;;;;;;;21.73;13.13;;;7.50;99.90;;;;;;12413705;28;20096;-36
2024/03/09 18:03:33;;;;;;;20.75;12.48;;;7.30;99.90;;;;;;12434978;28;20517;-35
2024/03/09 18:09:36;;;;;;;21.48;13.25;;;7.30;99.90;;;;;;12433377;28;20146;-35
2024/03/09 18:15:39;;;;;;;25.42;14.30;;;7.20;99.90;;;;;;12435586;28;20050;-35
2024/03/09 18:21:42;;;;;;;19.95;12.77;;;7.20;99.90;;;;;;12440774;28;20042;-35
2024/03/09 18:27:44;;;;;;;26.17;12.82;;;7.10;99.90;;;;;;12439205;28;20042;-35
2024/03/09 18:33:49;;;;;;;20.02;12.43;;;7.00;99.90;;;;;;12438031;28;20498;-35
2024/03/09 18:39:51;;;;;;;21.90;12.95;;;7.00;99.90;;;;;;12446889;28;20042;-35
2024/03/09 18:45:54;;;;;;;20.20;11.98;;;7.00;99.90;;;;;;12438885;28;20514;-35
2024/03/09 18:51:56;;;;;;;20.75;12.75;;;6.90;99.90;;;;;;12437236;28;20187;-36
2024/03/09 18:57:59;;;;;;;21.63;12.95;;;6.80;99.90;;;;;;12442870;28;20045;-36
2024/03/09 19:04:04;;;;;;;24.00;13.43;;;6.60;99.90;;;;;;12442134;28;20184;-36
2024/03/09 19:10:06;;;;;;;;;;;6.60;99.90;;;;;;12419580;28;20042;-35
2024/03/09 19:16:08;;;;;;;19.38;12.27;;;6.50;99.90;;;;;;12439784;28;19979;-36
2024/03/09 19:22:13;;;;;;;24.33;13.43;;;6.50;99.90;;;;;;12421180;28;20145;-35
2024/03/09 19:28:17;;;;;;;22.60;12.73;;;6.50;99.90;;;;;;12437783;28;20069;-35
2024/03/09 19:34:24;;;;;;;23.43;12.70;;;6.40;99.90;;;;;;12432340;28;20050;-36
2024/03/09 19:40:27;;;;;;;22.20;12.43;;;6.30;99.90;;;;;;12417105;28;20136;-36
2024/03/09 19:46:35;;;;;;;21.63;12.50;;;6.20;99.90;;;;;;12438694;28;20054;-36
2024/03/09 19:52:38;;;;;;;22.60;12.57;;;6.10;99.90;;;;;;12433215;28;20053;-36
2024/03/09 19:58:40;;;;;;;23.10;13.75;;;6.00;99.90;;;;;;12436484;28;20453;-36
2024/03/09 20:04:42;;;;;;;29.60;14.10;;;6.00;99.90;;;;;;12441233;28;20144;-36
2024/03/09 20:10:47;;;;;;;22.77;12.93;;;6.00;99.90;;;;;;12422998;28;20572;-36
2024/03/09 20:16:49;;;;;;;19.00;11.52;;;5.90;99.90;;;;;;12437607;28;20123;-35
2024/03/09 20:22:50;;;;;;;20.17;11.30;;;5.90;99.90;;;;;;12433997;28;20509;-36
2024/03/09 20:28:53;;;;;;;19.00;11.65;;;5.90;99.90;;;;;;12421544;28;20687;-35
2024/03/09 20:34:56;;;;;;;21.65;12.27;;;5.70;99.90;;;;;;12431334;28;20422;-35
2024/03/09 20:40:58;;;;;;;20.73;12.75;;;5.60;99.90;;;;;;12417001;28;20045;-35
2024/03/09 20:47:00;;;;;;;20.25;12.60;;;5.50;99.90;;;;;;12436883;28;20049;-35
2024/03/09 20:53:08;;;;;;;21.63;12.25;;;5.50;99.90;;;;;;12433774;28;20041;-36
2024/03/09 20:59:10;;;;;;;26.33;13.25;;;5.50;99.90;;;;;;12433200;28;20057;-35
2024/03/09 21:05:12;;;;;;;21.52;12.18;;;5.50;99.90;;;;;;12435462;28;20107;-35
2024/03/09 21:11:14;;;;;;;20.95;11.10;;;5.30;99.90;;;;;;12434707;28;20064;-36
2024/03/09 21:17:16;;;;;;;20.27;11.93;;;5.20;99.90;;;;;;12438469;28;20184;-35
2024/03/09 21:23:18;;;;;;;22.90;11.88;;;5.10;99.90;;;;;;12434403;28;20075;-35
2024/03/09 21:29:20;;;;;;;22.52;12.50;;;5.00;99.90;;;;;;12431374;28;20203;-35
2024/03/09 21:35:22;;;;;;;23.40;12.57;;;4.90;99.90;;;;;;12430344;28;20050;-35
2024/03/09 21:41:24;;;;;;;20.63;11.98;;;4.80;99.90;;;;;;12435154;28;20391;-36
2024/03/09 21:47:27;;;;;;;22.73;12.73;;;4.60;99.90;;;;;;12433163;28;20200;-35
2024/03/09 21:53:29;;;;;;;24.40;12.67;;;4.50;99.90;;;;;;12433267;28;20133;-35
2024/03/09 21:59:31;;;;;;;21.30;12.05;;;4.50;99.90;;;;;;12444517;28;20548;-35
2024/03/09 22:05:33;;;;;;;25.52;13.27;;;4.30;99.90;;;;;;12444702;28;20503;-36
2024/03/09 22:11:37;;;;;;;23.35;12.88;;;4.20;99.90;;;;;;12444587;28;20088;-35
2024/03/09 22:17:39;;;;;;;22.45;12.27;;;4.20;99.90;;;;;;12443632;28;20525;-35
2024/03/09 22:23:42;;;;;;;25.02;12.05;;;4.20;99.90;;;;;;12444591;28;20053;-35
2024/03/09 22:29:44;;;;;;;21.58;11.75;;;4.20;99.90;;;;;;12440197;28;20057;-35
2024/03/09 22:35:47;;;;;;;25.17;12.50;;;4.20;99.90;;;;;;12425489;28;20046;-36
2024/03/09 22:41:48;;;;;;;22.88;12.60;;;4.10;99.90;;;;;;12445264;28;20446;-35
2024/03/09 22:47:50;;;;;;;23.75;12.40;;;4.10;99.90;;;;;;12440086;28;20050;-35
2024/03/09 22:53:53;;;;;;;24.88;12.50;;;4.10;99.90;;;;;;12444649;28;20052;-36
2024/03/09 22:59:55;;;;;;;25.67;12.65;;;4.00;99.90;;;;;;12441661;28;20080;-35
2024/03/09 23:05:57;;;;;;;25.17;13.55;;;4.00;99.90;;;;;;12438098;28;20158;-35
2024/03/09 23:11:59;;;;;;;22.38;12.07;;;3.90;99.90;;;;;;12440796;28;20042;-36
2024/03/09 23:18:04;;;;;;;22.30;12.40;;;3.90;99.90;;;;;;12434889;28;20050;-35
2024/03/09 23:24:07;;;;;;;23.48;12.93;;;3.90;99.90;;;;;;12430313;28;20196;-36
2024/03/09 23:30:12;;;;;;;24.40;12.68;;;3.90;99.90;;;;;;12442333;28;20046;-35
2024/03/09 23:36:15;;;;;;;23.25;12.30;;;3.90;99.90;;;;;;12436467;28;20058;-36
2024/03/09 23:42:17;;;;;;;24.90;12.63;;;3.90;99.90;;;;;;12422873;28;20049;-35
2024/03/09 23:48:19;;;;;;;24.10;13.45;;;3.90;99.90;;;;;;12435552;28;20084;-35
2024/03/09 23:54:21;;;;;;;24.58;12.43;;;3.80;99.90;;;;;;12438472;28;20095;-35
